Data for 12/30/2012

Time Sea-Level Adjusted Pressure Absolute Pressure Temperature Relative Humidity Dew Point   
(mb) (inHg) (mb) (inHg) (C) (F) (%) (C) (F)
00:05 1016 30 845 24.95 -10.9 12.3 67 -16 3.3
00:10 1016 30 845 24.95 -10.9 12.4 67 -16 3.3
00:15 1016 30 845 24.95 -11 12.2 67 -16 3.3
00:20 1016 30 845 24.95 -10.7 12.7 66 -16 3.3
00:25 1016 30 845 24.95 -10.7 12.7 66 -15.9 3.4
00:30 1016 30 845 24.95 -10.6 12.9 65 -15.9 3.4
00:35 1016 30 845 24.95 -10.6 12.9 66 -15.9 3.4
00:40 1016 30 845 24.95 -10.6 12.9 66 -15.9 3.4
00:45 1016 30 845 24.95 -10.5 13.1 65 -15.8 3.5
00:50 1016 30 845 24.95 -10.6 13 66 -15.8 3.6
00:55 1016 30 845 24.95 -10.8 12.6 67 -15.8 3.5
01:00 1016 30 845 24.95 -10.8 12.5 67 -15.8 3.6
01:05 1016 30 845 24.95 -10.7 12.8 67 -15.8 3.6
01:10 1016 30 845 24.95 -10.3 13.4 66 -15.5 4
01:15 1016 30 845 24.95 -10 13.9 65 -15.4 4.4
01:20 1016 30 845 24.95 -10 14 65 -15.4 4.3
01:25 1016 30 845 24.95 -9.7 14.6 64 -15.2 4.6
01:30 1016 30 845 24.95 -9.6 14.7 65 -15.1 4.8
01:35 1016 30 845 24.95 -9.8 14.4 65 -15.2 4.6
01:40 1016 30 845 24.95 -9.9 14.3 65 -15.2 4.7
01:45 1016 30 845 24.95 -10.1 13.9 66 -15.3 4.5
01:50 1016 30 845 24.95 -10.3 13.4 67 -15.4 4.4
01:55 1016 30 845 24.95 -10.7 12.7 68 -15.6 4
02:00 1016 30 845 24.95 -10.7 12.8 67 -15.6 3.9
02:05 1016 30 845 24.95 -10.7 12.8 68 -15.5 4.1
02:10 1016 30 845 24.95 -10.4 13.4 66 -15.5 4.2
02:15 1016 30 845 24.95 -9.8 14.4 65 -15.2 4.7
02:20 1016 30 845 24.95 -10.1 13.9 67 -15.2 4.7
02:25 1016 30 845 24.95 -10 13.9 66 -15.2 4.6
02:30 1016 30 845 24.95 -9.9 14.3 65 -15.2 4.7
02:35 1016 30 845 24.95 -9.9 14.2 66 -15.1 4.9
02:40 1016 30 845 24.95 -9.9 14.2 66 -15.1 4.9
02:45 1016 30 845 24.95 -9.8 14.3 66 -14.9 5.1
02:50 1016 30 845 24.95 -9.8 14.4 67 -14.9 5.3
02:55 1016 30 845 24.95 -9.7 14.5 66 -14.9 5.2
03:00 1016 30 845 24.95 -9.7 14.5 66 -14.9 5.2
03:05 1016 30 846 24.98 -9.7 14.5 67 -14.8 5.3
03:10 1016 30 846 24.98 -9.8 14.4 67 -14.9 5.2
03:15 1016 30 846 24.98 -9.7 14.5 66 -15 5
03:20 1017 30.03 846 24.98 -9.5 15 65 -14.8 5.3
03:25 1017 30.03 846 24.98 -9.4 15.1 65 -14.9 5.2
03:30 1017 30.03 846 24.98 -9.4 15.1 65 -14.9 5.2
03:35 1017 30.03 846 24.98 -9.3 15.2 64 -14.9 5.2
03:40 1017 30.03 846 24.98 -9.2 15.5 63 -15 5
03:45 1017 30.03 846 24.98 -9.1 15.6 65 -14.6 5.7
03:50 1017 30.03 846 24.98 -9 15.8 63 -14.7 5.5
03:55 1017 30.03 846 24.98 -9 15.8 65 -14.4 6
04:00 1017 30.03 846 24.98 -9 15.8 64 -14.6 5.7
04:05 1017 30.03 846 24.98 -9 15.7 64 -14.7 5.5
04:10 1017 30.03 846 24.98 -9 15.9 66 -14.3 6.3
04:15 1017 30.03 846 24.98 -9 15.8 65 -14.4 6.1
04:20 1017 30.03 846 24.98 -8.9 16 67 -14 6.8
04:25 1017 30.03 846 24.98 -9 15.8 69 -13.7 7.4
04:30 1017 30.03 846 24.98 -9.3 15.2 70 -13.8 7.1
04:35 1017 30.03 846 24.98 -9.5 15 70 -13.9 6.9
04:40 1017 30.03 846 24.98 -9.5 14.9 71 -13.8 7.2
04:45 1017 30.03 846 24.98 -9.7 14.6 72 -13.8 7.2
04:50 1017 30.03 846 24.98 -9.6 14.7 73 -13.7 7.4
04:55 1017 30.03 846 24.98 -9.5 15 72 -13.6 7.5
05:00 1017 30.03 846 24.98 -9.2 15.5 73 -13.2 8.3
05:05 1017 30.03 846 24.98 -9.2 15.5 78 -12.3 9.8
05:10 1017 30.03 846 24.98 -9.4 15.2 79 -12.3 9.9
05:15 1017 30.03 846 24.98 -9.5 15 81 -12.1 10.2
05:20 1017 30.03 846 24.98 -9.4 15 80 -12.2 10
05:25 1017 30.03 846 24.98 -9.3 15.3 80 -12.1 10.1
05:30 1017 30.03 846 24.98 -9.3 15.3 79 -12.3 9.8
05:35 1017 30.03 846 24.98 -9.3 15.4 80 -12.1 10.3
05:40 1017 30.03 846 24.98 -9.2 15.5 80 -12 10.4
05:45 1017 30.03 846 24.98 -9.1 15.7 82 -11.6 11.1
05:50 1017 30.03 846 24.98 -8.9 16 81 -11.5 11.3
05:55 1017 30.03 846 24.98 -8.8 16.1 81 -11.5 11.3
06:00 1017 30.03 846 24.98 -8.9 15.9 81 -11.6 11.2
06:05 1017 30.03 846 24.98 -9.1 15.7 82 -11.6 11.1
06:10 1017 30.03 846 24.98 -9.3 15.4 83 -11.7 10.9
06:15 1017 30.03 846 24.98 -9.5 14.8 84 -11.7 10.9
06:20 1017 30.03 846 24.98 -9.7 14.5 86 -11.7 10.9
06:25 1017 30.03 847 25.01 -9.8 14.4 87 -11.6 11.2
06:30 1017 30.03 847 25.01 -9.7 14.5 87 -11.5 11.3
06:35 1017 30.03 846 24.98 -9.8 14.4 88 -11.5 11.3
06:40 1017 30.03 846 24.98 -9.8 14.4 88 -11.4 11.5
06:45 1017 30.03 846 24.98 -9.8 14.4 88 -11.4 11.4
06:50 1017 30.03 846 24.98 -9.8 14.4 88 -11.4 11.4
06:55 1017 30.03 847 25.01 -9.8 14.4 88 -11.4 11.5
07:00 1017 30.03 847 25.01 -9.6 14.6 88 -11.3 11.7
07:05 1017 30.03 847 25.01 -9.6 14.7 88 -11.2 11.8
07:10 1017 30.03 847 25.01 -9.6 14.8 88 -11.2 11.8
07:15 1017 30.03 847 25.01 -9.6 14.8 89 -11.1 12
07:20 1017 30.03 847 25.01 -9.5 14.9 89 -11 12.1
07:25 1018 30.06 847 25.01 -9.5 15 88 -11 12.1
07:30 1018 30.06 847 25.01 -9.4 15 88 -11 12.2
07:35 1018 30.06 847 25.01 -9.5 15 89 -11 12.2
07:40 1018 30.06 847 25.01 -9.5 15 89 -11 12.3
07:45 1018 30.06 847 25.01 -9.4 15 89 -10.9 12.3
07:50 1018 30.06 847 25.01 -9.4 15.1 89 -10.9 12.4
07:55 1018 30.06 847 25.01 -9.4 15.1 89 -10.8 12.5
08:00 1018 30.06 847 25.01 -9.4 15.1 89 -10.9 12.4
08:05 1018 30.06 847 25.01 -9.4 15.1 89 -10.9 12.5
08:10 1018 30.06 847 25.01 -9.4 15.1 89 -10.8 12.5
08:15 1018 30.06 847 25.01 -9.4 15.2 89 -10.8 12.6
08:20 1018 30.06 847 25.01 -9.3 15.2 90 -10.7 12.8
08:25 1018 30.06 847 25.01 -9.3 15.2 90 -10.8 12.6
08:30 1018 30.06 847 25.01 -9.4 15.1 87 -11.1 12
08:35 1018 30.06 847 25.01 -9.5 15 86 -11.3 11.6
08:40 1018 30.06 847 25.01 -9.6 14.8 86 -11.5 11.3
08:45 1018 30.06 847 25.01 -9.7 14.5 86 -11.6 11
08:50 1018 30.06 847 25.01 -9.8 14.3 86 -11.7 11
08:55 1018 30.06 847 25.01 -9.9 14.3 86 -11.7 10.9
09:00 1018 30.06 847 25.01 -10.2 13.6 88 -11.9 10.7
09:05 1018 30.06 847 25.01 -10.6 13 88 -12.2 10
09:10 1018 30.06 847 25.01 -10.8 12.6 88 -12.3 9.8
09:15 1018 30.06 847 25.01 -10.8 12.7 88 -12.3 9.8
09:20 1018 30.06 847 25.01 -10.6 12.9 87 -12.4 9.6
09:25 1018 30.06 847 25.01 -10.5 13.1 86 -12.4 9.7
09:30 1018 30.06 847 25.01 -10.4 13.4 88 -12 10.4
09:35 1018 30.06 847 25.01 -10.2 13.7 88 -11.7 10.9
09:40 1018 30.06 847 25.01 -10.1 13.9 88 -11.7 10.9
09:45 1018 30.06 847 25.01 -10.1 13.8 88 -11.7 10.9
09:50 1018 30.06 847 25.01 -10 14 88 -11.6 11.1
09:55 1018 30.06 847 25.01 -9.9 14.2 88 -11.6 11.2
10:00 1018 30.06 847 25.01 -9.8 14.3 87 -11.6 11.1
10:05 1018 30.06 847 25.01 -9.6 14.8 86 -11.4 11.4
10:10 1018 30.06 847 25.01 -9.1 15.7 84 -11.3 11.7
10:15 1018 30.06 847 25.01 -8.7 16.3 83 -11.1 11.9
10:20 1018 30.06 847 25.01 -8.7 16.4 82 -11.1 11.9
10:25 1018 30.06 847 25.01 -8.2 17.3 80 -11.1 12
10:30 1018 30.06 847 25.01 -7.6 18.3 77 -10.9 12.4
10:35 1018 30.06 847 25.01 -7.3 18.8 76 -10.9 12.4
10:40 1018 30.06 847 25.01 -7.2 19.1 76 -10.8 12.6
10:45 1018 30.06 848 25.04 -6.8 19.7 75 -10.6 13
10:50 1018 30.06 848 25.04 -6.6 20.2 74 -10.4 13.2
10:55 1018 30.06 848 25.04 -6.5 20.3 72 -10.8 12.6
11:00 1018 30.06 848 25.04 -6.4 20.5 71 -10.8 12.6
11:05 1018 30.06 848 25.04 -7 19.5 72 -11.2 11.9
11:10 1019 30.09 848 25.04 -7 19.4 72 -11.2 11.9
11:15 1019 30.09 848 25.04 -7.4 18.7 74 -11.2 11.9
11:20 1019 30.09 848 25.04 -7 19.3 71 -11.4 11.5
11:25 1019 30.09 848 25.04 -6.7 19.9 71 -11.1 11.9
11:30 1019 30.09 848 25.04 -6.9 19.7 70 -11.5 11.4
11:35 1019 30.09 848 25.04 -7.2 19.1 72 -11.5 11.4
11:40 1019 30.09 848 25.04 -7.1 19.2 72 -11.3 11.6
11:45 1019 30.09 848 25.04 -6.5 20.3 69 -11.3 11.7
11:50 1019 30.09 848 25.04 -6.2 20.9 69 -11.1 12.1
11:55 1019 30.09 848 25.04 -6.5 20.3 70 -11.1 12.1
12:00 1019 30.09 848 25.04 -5.9 21.4 68 -10.9 12.4
12:05 1019 30.09 848 25.04 -6.3 20.7 69 -11 12.2
12:10 1019 30.09 848 25.04 -6.2 20.9 68 -11.1 11.9
12:15 1019 30.09 848 25.04 -5.5 22.1 65 -11 12.2
12:20 1019 30.09 848 25.04 -5.4 22.4 66 -10.7 12.7
12:25 1019 30.09 848 25.04 -6.4 20.5 71 -10.9 12.5
12:30 1019 30.09 848 25.04 -6.8 19.7 71 -11.2 11.9
12:35 1019 30.09 848 25.04 -6.5 20.3 70 -11.1 12
12:40 1019 30.09 848 25.04 -6.4 20.5 70 -10.9 12.3
12:45 1019 30.09 848 25.04 -5.9 21.3 67 -11 12.1
12:50 1018 30.06 848 25.04 -5.2 22.6 65 -10.8 12.5
12:55 1018 30.06 848 25.04 -4.9 23.2 64 -10.7 12.8
13:00 1018 30.06 848 25.04 -5.1 22.8 67 -10.3 13.4
13:05 1018 30.06 848 25.04 -6 21.2 70 -10.7 12.8
13:10 1018 30.06 848 25.04 -6 21.2 71 -10.4 13.3
13:15 1018 30.06 847 25.01 -5.3 22.4 65 -10.9 12.4
13:20 1018 30.06 847 25.01 -4.6 23.7 63 -10.7 12.8
13:25 1018 30.06 847 25.01 -4.4 24.1 61 -10.7 12.7
13:30 1018 30.06 847 25.01 -4.1 24.7 61 -10.5 13.1
13:35 1018 30.06 847 25.01 -4.3 24.3 63 -10.3 13.4
13:40 1018 30.06 847 25.01 -4.6 23.7 64 -10.4 13.2
13:45 1018 30.06 847 25.01 -5.1 22.9 64 -10.8 12.6
13:50 1018 30.06 847 25.01 -5.3 22.5 66 -10.6 12.9
13:55 1018 30.06 847 25.01 -5 23 62 -11.1 11.9
14:00 1018 30.06 847 25.01 -4.5 23.9 60 -11.2 11.9
14:05 1018 30.06 847 25.01 -4.9 23.2 61 -11.2 11.8
14:10 1018 30.06 847 25.01 -4.5 23.9 60 -11.1 12
14:15 1018 30.06 847 25.01 -4.6 23.8 64 -10.3 13.4
14:20 1018 30.06 847 25.01 -5 23.1 65 -10.5 13.1
14:25 1018 30.06 847 25.01 -5 22.9 65 -10.5 13
14:30 1018 30.06 847 25.01 -5.2 22.7 65 -10.8 12.6
14:35 1018 30.06 847 25.01 -4.8 23.3 64 -10.6 12.9
14:40 1018 30.06 847 25.01 -5.4 22.2 65 -11 12.2
14:45 1018 30.06 847 25.01 -5.2 22.6 66 -10.7 12.7
14:50 1018 30.06 847 25.01 -5.9 21.4 67 -11 12.2
14:55 1018 30.06 847 25.01 -5.8 21.7 67 -11 12.3
15:00 1018 30.06 847 25.01 -5.3 22.4 64 -11.1 11.9
15:05 1018 30.06 847 25.01 -4.9 23.3 62 -11 12.1
15:10 1018 30.06 847 25.01 -4.6 23.7 61 -11.1 12.1
15:15 1018 30.06 847 25.01 -4.2 24.5 60 -10.8 12.6
15:20 1018 30.06 847 25.01 -4.2 24.4 63 -10.3 13.4
15:25 1018 30.06 847 25.01 -4.6 23.8 64 -10.4 13.3
15:30 1018 30.06 847 25.01 -4.4 24.1 64 -10.1 13.7
15:35 1018 30.06 847 25.01 -4.5 23.8 64 -10.3 13.5
15:40 1018 30.06 847 25.01 -4.5 24 64 -10.2 13.6
15:45 1018 30.06 847 25.01 -4.4 24.1 64 -10.2 13.7
15:50 1018 30.06 847 25.01 -4.8 23.3 68 -9.9 14.1
15:55 1018 30.06 847 25.01 -5.1 22.9 67 -10.4 13.3
16:00 1018 30.06 847 25.01 -4.9 23.2 67 -10.1 13.8
16:05 1018 30.06 847 25.01 -5.3 22.5 69 -10.1 13.8
16:10 1018 30.06 847 25.01 -5.6 21.9 70 -10.3 13.4
16:15 1018 30.06 847 25.01 -5.7 21.7 70 -10.4 13.3
16:20 1018 30.06 847 25.01 -5.7 21.8 70 -10.2 13.6
16:25 1018 30.06 847 25.01 -5.7 21.7 69 -10.6 12.9
16:30 1018 30.06 847 25.01 -5.5 22.1 66 -10.9 12.5
16:35 1018 30.06 847 25.01 -5 23 63 -10.9 12.4
16:40 1018 30.06 847 25.01 -5 22.9 65 -10.7 12.7
16:45 1018 30.06 847 25.01 -5.5 22.1 66 -10.8 12.5
16:50 1018 30.06 847 25.01 -5.6 21.9 66 -11 12.2
16:55 1018 30.06 847 25.01 -5.6 21.9 66 -10.9 12.4
17:00 1018 30.06 847 25.01 -5.5 22 66 -11 12.2
17:05 1018 30.06 847 25.01 -5.4 22.2 66 -10.9 12.4
17:10 1018 30.06 847 25.01 -5.5 22.1 66 -10.9 12.3
17:15 1018 30.06 847 25.01 -5.5 22.1 66 -11 12.3
17:20 1018 30.06 847 25.01 -5.6 21.9 67 -10.9 12.4
17:25 1018 30.06 847 25.01 -5.9 21.4 67 -11.1 12.1
17:30 1018 30.06 847 25.01 -6.1 21.1 68 -11.1 11.9
17:35 1018 30.06 847 25.01 -6.2 20.8 69 -11.1 12.1
17:40 1018 30.06 847 25.01 -7 19.5 75 -10.7 12.8
17:45 1018 30.06 847 25.01 -7.8 18 78 -11 12.3
17:50 1018 30.06 847 25.01 -7.9 17.8 78 -11.1 12.1
17:55 1018 30.06 847 25.01 -7.9 17.8 77 -11.3 11.6
18:00 1018 30.06 847 25.01 -8 17.6 75 -11.7 10.9
18:05 1018 30.06 847 25.01 -8.1 17.4 76 -11.6 11.1
18:10 1018 30.06 847 25.01 -8.4 16.8 78 -11.6 11.1
18:15 1018 30.06 847 25.01 -8.7 16.4 78 -11.9 10.6
18:20 1018 30.06 847 25.01 -8.8 16.1 76 -12.3 9.9
18:25 1018 30.06 847 25.01 -9 15.8 77 -12.4 9.7
18:30 1018 30.06 847 25.01 -9.3 15.4 78 -12.3 9.8
18:35 1018 30.06 847 25.01 -9.2 15.4 77 -12.5 9.5
18:40 1018 30.06 847 25.01 -9.5 14.9 79 -12.6 9.4
18:45 1018 30.06 847 25.01 -9.7 14.5 78 -12.8 8.9
18:50 1018 30.06 847 25.01 -9.7 14.5 80 -12.6 9.4
18:55 1018 30.06 847 25.01 -9.9 14.2 80 -12.7 9.1
19:00 1018 30.06 847 25.01 -9.9 14.2 79 -12.8 8.9
19:05 1018 30.06 847 25.01 -9.9 14.1 80 -12.8 8.9
19:10 1018 30.06 847 25.01 -9.8 14.4 80 -12.7 9.2
19:15 1018 30.06 847 25.01 -9.9 14.2 78 -13.1 8.5
19:20 1018 30.06 847 25.01 -10.3 13.5 80 -13.1 8.5
19:25 1018 30.06 847 25.01 -10.2 13.7 78 -13.3 8.1
19:30 1018 30.06 847 25.01 -9.8 14.4 78 -12.9 8.9
19:35 1018 30.06 847 25.01 -9.5 14.8 77 -12.8 8.9
19:40 1018 30.06 847 25.01 -9.5 15 79 -12.5 9.4
19:45 1018 30.06 847 25.01 -9.3 15.3 78 -12.5 9.5
19:50 1018 30.06 847 25.01 -9.4 15.2 78 -12.6 9.4
19:55 1018 30.06 847 25.01 -9.5 14.8 77 -12.9 8.7
20:00 1018 30.06 847 25.01 -9.7 14.5 76 -13.1 8.3
20:05 1018 30.06 847 25.01 -9.9 14.1 76 -13.4 7.9
20:10 1018 30.06 847 25.01 -10 14.1 76 -13.4 7.9
20:15 1018 30.06 847 25.01 -10.1 13.9 76 -13.5 7.8
20:20 1018 30.06 847 25.01 -10.1 13.8 77 -13.5 7.7
20:25 1018 30.06 847 25.01 -10.2 13.6 76 -13.6 7.5
20:30 1018 30.06 847 25.01 -10.2 13.6 76 -13.6 7.5
20:35 1018 30.06 847 25.01 -10.2 13.6 77 -13.6 7.5
20:40 1018 30.06 847 25.01 -10.2 13.6 76 -13.6 7.5
20:45 1018 30.06 847 25.01 -10.1 13.9 75 -13.7 7.3
20:50 1018 30.06 847 25.01 -10.4 13.3 75 -13.9 6.9
20:55 1018 30.06 847 25.01 -10.6 12.9 76 -14 6.7
21:00 1018 30.06 847 25.01 -10.8 12.6 78 -14 6.9
21:05 1018 30.06 847 25.01 -11 12.2 77 -14.2 6.4
21:10 1018 30.06 847 25.01 -11.1 11.9 77 -14.5 5.9
21:15 1018 30.06 847 25.01 -11.2 11.8 78 -14.3 6.3
21:20 1018 30.06 847 25.01 -11.2 11.9 78 -14.4 6.2
21:25 1018 30.06 847 25.01 -11.1 12.1 76 -14.5 6
21:30 1018 30.06 847 25.01 -11.1 12.1 76 -14.6 5.8
21:35 1018 30.06 847 25.01 -11 12.3 76 -14.5 6
21:40 1018 30.06 847 25.01 -10.8 12.5 75 -14.4 6.1
21:45 1018 30.06 847 25.01 -10.8 12.5 75 -14.5 5.9
21:50 1018 30.06 847 25.01 -10.9 12.4 76 -14.4 6.1
21:55 1018 30.06 847 25.01 -10.9 12.3 76 -14.4 6.1
22:00 1018 30.06 847 25.01 -10.8 12.6 78 -13.9 6.9
22:05 1018 30.06 847 25.01 -10.6 13 75 -14.2 6.5
22:10 1018 30.06 847 25.01 -10.2 13.6 72 -14.3 6.2
22:15 1018 30.06 847 25.01 -10.5 13.2 73 -14.4 6.1
22:20 1018 30.06 847 25.01 -10.7 12.8 74 -14.4 6.1
22:25 1018 30.06 847 25.01 -10.6 12.9 74 -14.4 6.1
22:30 1018 30.06 847 25.01 -10.5 13.1 77 -13.8 7.2
22:35 1018 30.06 847 25.01 -10.2 13.6 77 -13.6 7.6
22:40 1018 30.06 847 25.01 -10 13.9 75 -13.6 7.4
22:45 1018 30.06 847 25.01 -10.3 13.5 76 -13.7 7.3
22:50 1018 30.06 847 25.01 -10 13.9 74 -13.9 7
22:55 1018 30.06 847 25.01 -9.8 14.3 77 -13.2 8.3
23:00 1018 30.06 847 25.01 -9.8 14.3 73 -13.8 7.1
23:05 1018 30.06 847 25.01 -10 14 74 -13.8 7.2
23:10 1018 30.06 847 25.01 -10 14.1 74 -13.8 7.1
23:15 1018 30.06 847 25.01 -10 14 74 -13.8 7.2
23:20 1018 30.06 847 25.01 -9.8 14.4 75 -13.4 7.8
23:25 1018 30.06 847 25.01 -9.6 14.8 73 -13.5 7.7
23:30 1018 30.06 847 25.01 -9.6 14.8 74 -13.5 7.8
23:35 1018 30.06 847 25.01 -9.6 14.7 72 -13.7 7.3
23:40 1018 30.06 847 25.01 -10 14.1 74 -13.7 7.3
23:45 1018 30.06 847 25.01 -10 14 75 -13.7 7.4
23:50 1018 30.06 847 25.01 -9.9 14.2 74 -13.7 7.3
23:55 1018 30.06 847 25.01 -10 13.9 75 -13.7 7.3
24:00 1018 30.06 848 25.04 -10.5 13.1 77 -13.7 7.3